Archival Weather

Chicago O'Hare International

Chicago, Illinois (KORD)

Report from: Friday, March 30, 2012 3:51 PM CDT
Current time: Wednesday, May 29, 2024 4:18 AM CDT

Current weather – Weather history – Daily summaries
Weather forecast

Temperature8.3°C (46.9°F)
Wind chill5.6°C (42.1°F)
Dew point4.4°C (39.9°F)
Winds 9 kts (4.6 m/s, 10.4 mph) North-Northeast (30°)
Visibility7 mi. (11.3 km)
Clouds Ceiling: Overcast 1,300 ft. (396 m)
Altimeter29.79 in.Hg (1009 mB)
Relative humidity76 %
Density altitude-537 ft. (-164 m)
Sea-level pressure100.9 kPa (1009 mB, 29.80 in.Hg)
Remarks Automated weather observing station with precipitation discriminator
Pressure rising
Flight conditions Marginal Visual Meteorological Conditions
Raw data2012-03-30 20:51 KORD 302051Z 03009KT 7SM OVC013 08/04 A2979 RMK AO2 SLP090 T00830044 52017
An error has occurred. This application may no longer respond until reloaded. Reload 🗙